createdAt,value
2023-04-30T00:00:52.559Z,236.68
2023-04-30T00:01:52.719Z,235.91
2023-04-30T00:02:52.742Z,230.31
2023-04-30T00:03:52.733Z,231.98
2023-04-30T00:04:52.701Z,231.93
2023-04-30T00:05:52.789Z,229.45
2023-04-30T00:06:52.801Z,230.00
2023-04-30T00:07:52.875Z,229.71
2023-04-30T00:08:52.892Z,231.78
2023-04-30T00:09:53.279Z,233.34
2023-04-30T00:10:53.004Z,235.06
2023-04-30T00:11:53.045Z,233.29
2023-04-30T00:12:53.066Z,235.80
2023-04-30T00:13:53.177Z,233.47
2023-04-30T00:14:53.154Z,234.37
2023-04-30T00:15:53.265Z,234.38
2023-04-30T00:16:53.300Z,235.39
2023-04-30T00:17:53.421Z,233.20
2023-04-30T00:18:53.363Z,235.13
2023-04-30T00:19:53.521Z,235.73
2023-04-30T00:20:53.456Z,234.85
2023-04-30T00:21:53.512Z,236.58
2023-04-30T00:22:53.563Z,236.18
2023-04-30T00:23:53.588Z,234.67
2023-04-30T00:24:53.657Z,236.56
2023-04-30T00:25:53.730Z,234.94
2023-04-30T00:26:53.755Z,236.26
2023-04-30T00:27:53.857Z,235.25
2023-04-30T00:28:53.838Z,232.11
2023-04-30T00:29:54.125Z,233.12
2023-04-30T00:30:53.940Z,233.26
2023-04-30T00:31:53.978Z,233.37
2023-04-30T00:32:53.985Z,233.70
2023-04-30T00:33:53.935Z,233.44
2023-04-30T00:34:53.938Z,232.61
2023-04-30T00:35:53.908Z,232.37
2023-04-30T00:36:53.880Z,232.22
2023-04-30T00:37:53.905Z,231.83
2023-04-30T00:38:53.884Z,230.95
2023-04-30T00:39:54.063Z,226.71
2023-04-30T00:40:53.906Z,229.27
2023-04-30T00:41:53.913Z,225.22
2023-04-30T00:42:53.986Z,226.66
2023-04-30T00:43:54.021Z,229.86
2023-04-30T00:44:54.057Z,229.62
2023-04-30T00:45:54.145Z,229.72
2023-04-30T00:46:54.164Z,230.55
2023-04-30T00:47:54.282Z,228.31
2023-04-30T00:48:54.300Z,227.76
2023-04-30T00:49:54.506Z,225.86
2023-04-30T00:50:54.378Z,226.14
2023-04-30T00:51:54.409Z,224.63
2023-04-30T00:52:54.478Z,224.92
2023-04-30T00:53:54.520Z,223.93
2023-04-30T00:54:54.585Z,219.92
2023-04-30T00:55:54.627Z,222.15
2023-04-30T00:56:54.720Z,220.67
2023-04-30T00:57:54.727Z,218.44
2023-04-30T00:58:54.794Z,220.47
2023-04-30T00:59:55.105Z,220.71
2023-04-30T01:00:54.933Z,220.95
2023-04-30T01:01:54.975Z,220.47
2023-04-30T01:02:55.113Z,220.62
2023-04-30T01:03:55.045Z,223.27
2023-04-30T01:04:55.107Z,224.83
2023-04-30T01:05:55.185Z,222.55
2023-04-30T01:06:55.211Z,223.18
2023-04-30T01:07:55.255Z,223.53
2023-04-30T01:08:55.286Z,223.70
2023-04-30T01:09:55.585Z,225.29
2023-04-30T01:10:55.402Z,221.94
2023-04-30T01:11:55.433Z,221.23
2023-04-30T01:12:55.507Z,220.84
2023-04-30T01:13:55.537Z,218.80
2023-04-30T01:14:55.600Z,222.24
2023-04-30T01:15:55.676Z,221.60
2023-04-30T01:16:55.685Z,221.43
2023-04-30T01:17:55.847Z,221.45
2023-04-30T01:18:56.025Z,225.72
2023-04-30T01:19:56.009Z,225.67
2023-04-30T01:20:55.890Z,225.75
2023-04-30T01:21:55.926Z,226.51
2023-04-30T01:22:55.996Z,226.27
2023-04-30T01:23:56.033Z,224.96
2023-04-30T01:24:56.072Z,224.59
2023-04-30T01:25:56.120Z,224.37
2023-04-30T01:26:56.150Z,225.11
2023-04-30T01:27:56.207Z,225.85
2023-04-30T01:28:56.273Z,223.18
2023-04-30T01:29:56.552Z,220.87
2023-04-30T01:30:56.352Z,220.98
2023-04-30T01:31:56.269Z,221.42
2023-04-30T01:32:56.262Z,221.25
2023-04-30T01:33:56.252Z,222.43
2023-04-30T01:34:56.268Z,222.86
2023-04-30T01:35:56.196Z,221.06
2023-04-30T01:36:56.190Z,221.48
2023-04-30T01:37:56.156Z,221.37
2023-04-30T01:38:56.162Z,219.84
2023-04-30T01:39:56.579Z,222.62
2023-04-30T01:40:56.134Z,222.79
2023-04-30T01:41:56.109Z,223.26
2023-04-30T01:42:56.101Z,222.59
2023-04-30T01:43:56.105Z,221.01
2023-04-30T01:44:56.150Z,221.25
2023-04-30T01:45:56.259Z,223.28
2023-04-30T01:46:56.274Z,223.36
2023-04-30T01:47:56.343Z,222.62
2023-04-30T01:48:56.351Z,223.47
2023-04-30T01:49:56.740Z,224.17
2023-04-30T01:50:56.450Z,222.28
2023-04-30T01:51:56.511Z,221.11
2023-04-30T01:52:56.559Z,222.01
2023-04-30T01:53:56.593Z,222.55
2023-04-30T01:54:56.678Z,222.92
2023-04-30T01:55:56.705Z,222.61
2023-04-30T01:56:56.809Z,223.97
2023-04-30T01:57:56.820Z,225.05
2023-04-30T01:58:56.877Z,226.45
2023-04-30T01:59:56.980Z,224.87
2023-04-30T02:00:57.005Z,224.58
2023-04-30T02:01:57.148Z,223.89
2023-04-30T02:02:57.185Z,225.70
2023-04-30T02:03:57.260Z,226.90
2023-04-30T02:04:57.198Z,227.10
2023-04-30T02:05:57.259Z,225.73
2023-04-30T02:06:57.344Z,227.58
2023-04-30T02:07:57.351Z,229.74
2023-04-30T02:08:57.432Z,228.32
2023-04-30T02:09:57.542Z,229.30
2023-04-30T02:10:57.586Z,231.05
2023-04-30T02:11:57.605Z,229.43
2023-04-30T02:12:57.668Z,230.56
2023-04-30T02:13:57.703Z,230.24
2023-04-30T02:14:57.790Z,231.56
2023-04-30T02:15:57.856Z,232.63
2023-04-30T02:16:57.888Z,233.10
2023-04-30T02:17:57.935Z,234.76
2023-04-30T02:18:57.985Z,231.94
2023-04-30T02:19:58.036Z,233.64
2023-04-30T02:20:58.073Z,235.22
2023-04-30T02:21:58.197Z,233.34
2023-04-30T02:22:58.195Z,235.75
2023-04-30T02:23:58.278Z,234.41
2023-04-30T02:24:58.330Z,237.02
2023-04-30T02:25:58.374Z,234.85
2023-04-30T02:26:58.458Z,236.10
2023-04-30T02:27:58.471Z,236.87
2023-04-30T02:28:58.557Z,236.95
2023-04-30T02:29:58.589Z,238.16
2023-04-30T02:30:58.659Z,236.20
2023-04-30T02:31:58.783Z,238.22
2023-04-30T02:32:58.777Z,237.78
2023-04-30T02:33:58.843Z,240.08
2023-04-30T02:34:58.894Z,239.05
2023-04-30T02:35:59.186Z,239.62
2023-04-30T02:36:59.001Z,236.56
2023-04-30T02:37:59.124Z,236.17
2023-04-30T02:38:59.106Z,235.27
2023-04-30T02:39:59.180Z,235.90
2023-04-30T02:40:59.229Z,236.46
2023-04-30T02:41:59.324Z,237.03
2023-04-30T02:42:59.350Z,236.45
2023-04-30T02:43:59.383Z,234.69
2023-04-30T02:44:59.473Z,234.51
2023-04-30T02:45:59.569Z,234.05
2023-04-30T02:46:59.595Z,228.53
2023-04-30T02:47:59.660Z,229.80
2023-04-30T02:48:59.704Z,230.06
2023-04-30T02:49:59.732Z,229.65
2023-04-30T02:50:59.780Z,229.20
2023-04-30T02:51:59.870Z,229.16
2023-04-30T02:52:59.899Z,227.53
2023-04-30T02:53:59.983Z,228.86
2023-04-30T02:55:00.032Z,231.16
2023-04-30T02:56:00.146Z,227.57
2023-04-30T02:57:00.169Z,225.92
2023-04-30T02:58:00.227Z,227.23
2023-04-30T02:59:00.278Z,226.62
2023-04-30T03:00:00.338Z,228.05
2023-04-30T03:01:00.408Z,226.57
2023-04-30T03:02:00.466Z,224.75
2023-04-30T03:03:00.622Z,224.73
2023-04-30T03:04:00.487Z,224.82
2023-04-30T03:05:00.525Z,224.83
2023-04-30T03:06:00.506Z,225.44
2023-04-30T03:07:00.523Z,225.80
2023-04-30T03:08:00.467Z,227.17
2023-04-30T03:09:00.485Z,226.17
2023-04-30T03:10:00.474Z,223.62
2023-04-30T03:11:00.447Z,220.80
2023-04-30T03:12:00.460Z,223.42
2023-04-30T03:13:00.437Z,223.03
2023-04-30T03:14:00.470Z,221.89
2023-04-30T03:15:00.538Z,221.77
2023-04-30T03:16:00.645Z,221.50
2023-04-30T03:17:00.685Z,223.57
2023-04-30T03:18:00.751Z,223.86
2023-04-30T03:19:00.806Z,223.88
2023-04-30T03:20:00.860Z,220.60
2023-04-30T03:21:00.984Z,221.86
2023-04-30T03:22:00.997Z,220.11
2023-04-30T03:23:01.049Z,216.88
2023-04-30T03:24:01.133Z,219.74
2023-04-30T03:25:01.185Z,219.28
2023-04-30T03:26:01.226Z,221.14
2023-04-30T03:27:01.295Z,223.74
2023-04-30T03:28:01.360Z,220.02
2023-04-30T03:29:01.397Z,219.57
2023-04-30T03:30:01.460Z,217.88
2023-04-30T03:31:01.552Z,218.56
2023-04-30T03:32:01.789Z,218.29
2023-04-30T03:33:01.723Z,218.33
2023-04-30T03:34:01.743Z,219.67
2023-04-30T03:35:01.813Z,220.66
2023-04-30T03:36:01.864Z,218.99
2023-04-30T03:37:01.922Z,218.82
2023-04-30T03:38:01.989Z,216.82
2023-04-30T03:39:02.044Z,214.71
2023-04-30T03:40:02.025Z,214.88
2023-04-30T03:41:02.028Z,215.20
2023-04-30T03:42:02.037Z,215.70
2023-04-30T03:43:02.010Z,212.62
2023-04-30T03:44:02.024Z,213.72
2023-04-30T03:45:02.012Z,215.63
2023-04-30T03:46:02.053Z,214.25
2023-04-30T03:47:01.985Z,215.68
2023-04-30T03:48:02.077Z,211.65
2023-04-30T03:49:02.024Z,208.09
2023-04-30T03:50:02.152Z,207.92
2023-04-30T03:51:02.194Z,204.47
2023-04-30T03:52:02.328Z,203.58
2023-04-30T03:53:02.373Z,203.18
2023-04-30T03:54:02.554Z,204.18
2023-04-30T03:55:02.491Z,200.59
2023-04-30T03:56:02.555Z,203.01
2023-04-30T03:57:02.621Z,200.73
2023-04-30T03:58:02.732Z,203.53
2023-04-30T03:59:02.722Z,200.26
2023-04-30T04:00:02.778Z,203.35
2023-04-30T04:01:02.829Z,203.36
2023-04-30T04:02:02.992Z,202.69
2023-04-30T04:03:02.990Z,206.48
2023-04-30T04:04:02.983Z,206.51
2023-04-30T04:05:03.037Z,205.14
2023-04-30T04:06:03.000Z,205.35
2023-04-30T04:07:02.960Z,204.93
2023-04-30T04:08:02.968Z,203.31
2023-04-30T04:09:02.962Z,201.14
2023-04-30T04:10:02.973Z,201.15
2023-04-30T04:11:02.966Z,203.84
2023-04-30T04:12:02.980Z,203.02
2023-04-30T04:13:03.060Z,201.58
2023-04-30T04:14:03.119Z,199.89
2023-04-30T04:15:03.201Z,202.75
2023-04-30T04:16:03.263Z,202.65
2023-04-30T04:17:03.289Z,202.87
2023-04-30T04:18:03.525Z,201.76
2023-04-30T04:19:03.435Z,201.86
2023-04-30T04:20:03.521Z,201.67
2023-04-30T04:21:03.506Z,201.86
2023-04-30T04:22:03.511Z,202.00
2023-04-30T04:23:03.521Z,201.99
2023-04-30T04:24:03.511Z,202.71
2023-04-30T04:25:03.550Z,202.91
2023-04-30T04:26:03.514Z,201.89
2023-04-30T04:27:03.532Z,203.21
2023-04-30T04:28:03.517Z,203.66
2023-04-30T04:29:03.518Z,203.97
2023-04-30T04:30:03.577Z,202.06
2023-04-30T04:31:03.627Z,202.27
2023-04-30T04:32:03.752Z,201.13
2023-04-30T04:33:03.793Z,201.15
2023-04-30T04:34:03.818Z,201.60
2023-04-30T04:35:03.916Z,200.73
2023-04-30T04:36:03.972Z,201.79
2023-04-30T04:37:04.040Z,200.68
2023-04-30T04:38:04.071Z,199.96
2023-04-30T04:39:04.153Z,199.36
2023-04-30T04:40:04.170Z,199.62
2023-04-30T04:41:04.214Z,200.89
2023-04-30T04:42:04.259Z,199.13
2023-04-30T04:43:04.279Z,200.07
2023-04-30T04:44:04.330Z,200.01
2023-04-30T04:45:04.369Z,199.96
2023-04-30T04:46:04.453Z,202.12
2023-04-30T04:47:04.392Z,198.88
2023-04-30T04:48:04.430Z,199.72
2023-04-30T04:49:04.428Z,197.24
2023-04-30T04:50:04.459Z,200.08
2023-04-30T04:51:04.486Z,199.92
2023-04-30T04:52:04.474Z,199.45
2023-04-30T04:53:04.492Z,199.64
2023-04-30T04:54:04.471Z,196.77
2023-04-30T04:55:04.561Z,198.10
2023-04-30T04:56:04.497Z,198.38
2023-04-30T04:57:04.542Z,198.68
2023-04-30T04:58:04.551Z,200.42
2023-04-30T04:59:04.630Z,199.72
2023-04-30T05:00:04.656Z,201.04
2023-04-30T05:01:04.692Z,200.44
2023-04-30T05:02:04.857Z,200.23
2023-04-30T05:03:04.822Z,199.17
2023-04-30T05:04:04.910Z,200.17
2023-04-30T05:05:04.765Z,200.23
2023-04-30T05:06:04.787Z,200.21
2023-04-30T05:07:04.782Z,198.28
2023-04-30T05:08:04.739Z,198.99
2023-04-30T05:09:04.735Z,199.08
2023-04-30T05:10:04.729Z,195.76
2023-04-30T05:11:04.711Z,187.52
2023-04-30T05:12:04.724Z,175.59
2023-04-30T05:13:04.712Z,174.56
2023-04-30T05:14:04.684Z,169.64
2023-04-30T05:15:04.692Z,158.17
2023-04-30T05:16:04.696Z,151.05
2023-04-30T05:17:04.687Z,128.64
2023-04-30T05:18:04.659Z,114.47
2023-04-30T05:19:04.660Z,108.06
2023-04-30T05:20:04.663Z,98.47
2023-04-30T05:21:04.654Z,88.95
2023-04-30T05:22:04.658Z,83.63
2023-04-30T05:23:04.649Z,84.83
2023-04-30T05:24:04.650Z,90.40
2023-04-30T05:25:04.661Z,91.08
2023-04-30T05:26:04.665Z,95.65
2023-04-30T05:27:04.636Z,98.93
2023-04-30T05:28:04.672Z,101.62
2023-04-30T05:29:04.648Z,104.06
2023-04-30T05:30:04.637Z,106.60
2023-04-30T05:31:04.635Z,108.68
2023-04-30T05:32:04.717Z,109.04
2023-04-30T05:33:04.759Z,109.92
2023-04-30T05:34:04.628Z,112.19
2023-04-30T05:35:04.634Z,114.91
2023-04-30T05:36:04.616Z,120.31
2023-04-30T05:37:04.632Z,125.58
2023-04-30T05:38:04.723Z,122.78
2023-04-30T05:39:04.643Z,124.89
2023-04-30T05:40:04.607Z,123.44
2023-04-30T05:41:04.613Z,127.04
2023-04-30T05:42:04.589Z,127.27
2023-04-30T05:43:04.593Z,130.81
2023-04-30T05:44:04.580Z,130.24
2023-04-30T05:45:04.587Z,132.37
2023-04-30T05:46:04.654Z,134.62
2023-04-30T05:47:04.654Z,135.35
2023-04-30T05:48:04.697Z,138.68
2023-04-30T05:49:04.704Z,137.28
2023-04-30T05:50:04.758Z,137.08
2023-04-30T05:51:04.797Z,138.83
2023-04-30T05:52:05.120Z,140.43
2023-04-30T05:53:04.887Z,135.18
2023-04-30T05:54:04.951Z,128.27
2023-04-30T05:55:04.971Z,123.97
2023-04-30T05:56:05.023Z,118.52
2023-04-30T05:57:05.064Z,115.49
2023-04-30T05:58:05.024Z,112.67
2023-04-30T05:59:05.030Z,104.11
2023-04-30T06:00:05.028Z,90.84
2023-04-30T06:01:05.026Z,84.91
2023-04-30T06:02:05.063Z,79.80
2023-04-30T06:03:05.051Z,72.54
2023-04-30T06:04:05.040Z,62.93
2023-04-30T06:05:05.038Z,46.28
2023-04-30T06:06:05.083Z,45.72
2023-04-30T06:07:05.017Z,46.99
2023-04-30T06:08:05.006Z,41.98
2023-04-30T06:09:05.096Z,26.44
2023-04-30T06:10:05.096Z,26.16
2023-04-30T06:11:05.029Z,26.43
2023-04-30T06:12:05.039Z,28.49
2023-04-30T06:13:05.062Z,25.00
2023-04-30T06:14:05.029Z,24.62
2023-04-30T06:15:05.056Z,25.42
2023-04-30T06:16:05.074Z,26.57
2023-04-30T06:17:05.053Z,30.55
2023-04-30T06:18:05.094Z,25.00
2023-04-30T06:19:05.117Z,24.15
2023-04-30T06:20:05.058Z,25.16
2023-04-30T06:21:05.054Z,22.85
2023-04-30T06:22:05.071Z,25.38
2023-04-30T06:23:05.062Z,12.67
2023-04-30T06:24:05.055Z,25.12
2023-04-30T06:25:05.063Z,25.70
2023-04-30T06:26:05.054Z,33.22
2023-04-30T06:27:05.054Z,37.25
2023-04-30T06:28:05.069Z,32.78
2023-04-30T06:29:05.051Z,31.06
2023-04-30T06:30:05.039Z,32.37
2023-04-30T06:31:05.096Z,30.16
2023-04-30T06:32:07.724Z,29.28
2023-04-30T06:33:05.074Z,30.59
2023-04-30T06:34:05.051Z,26.79
2023-04-30T06:35:05.078Z,30.92
2023-04-30T06:36:05.050Z,39.22
2023-04-30T06:37:05.084Z,28.23
2023-04-30T06:38:05.050Z,26.18
2023-04-30T06:39:05.078Z,29.74
2023-04-30T06:40:05.119Z,29.02
2023-04-30T06:41:05.067Z,34.51
2023-04-30T06:42:05.080Z,35.62
2023-04-30T06:43:05.070Z,34.45
2023-04-30T06:44:05.083Z,34.71
2023-04-30T06:45:05.087Z,34.15
2023-04-30T06:46:05.172Z,26.29
2023-04-30T06:47:05.115Z,30.16
2023-04-30T06:48:05.147Z,30.38
2023-04-30T06:49:05.106Z,31.49
2023-04-30T06:50:05.099Z,33.60
2023-04-30T06:51:05.116Z,37.01
2023-04-30T06:52:05.121Z,35.59
2023-04-30T06:53:05.145Z,28.57
2023-04-30T06:54:05.111Z,35.81
2023-04-30T06:55:05.203Z,34.02
2023-04-30T06:56:05.125Z,26.36
2023-04-30T06:57:05.154Z,29.56
2023-04-30T06:58:05.161Z,26.96
2023-04-30T06:59:05.144Z,32.37
2023-04-30T07:00:05.165Z,31.82
2023-04-30T07:01:05.181Z,33.87
2023-04-30T07:02:05.150Z,29.18
2023-04-30T07:03:05.247Z,30.90
2023-04-30T07:04:05.186Z,31.48
2023-04-30T07:05:05.224Z,26.34
2023-04-30T07:06:05.218Z,25.00
2023-04-30T07:07:05.201Z,26.29
2023-04-30T07:08:05.207Z,26.41
2023-04-30T07:09:05.211Z,27.47
2023-04-30T07:10:05.200Z,28.98
2023-04-30T07:11:05.228Z,33.97
2023-04-30T07:12:05.247Z,30.46
2023-04-30T07:13:05.253Z,31.53
2023-04-30T07:14:05.353Z,27.50
2023-04-30T07:15:05.240Z,28.38
2023-04-30T07:16:05.314Z,31.96
2023-04-30T07:17:05.278Z,25.95
2023-04-30T07:18:05.330Z,26.71
2023-04-30T07:19:05.257Z,26.53
2023-04-30T07:20:05.263Z,28.01
2023-04-30T07:21:05.308Z,31.34
2023-04-30T07:22:05.629Z,31.32
2023-04-30T07:23:05.262Z,31.58
2023-04-30T07:24:05.299Z,29.78
2023-04-30T07:25:05.285Z,32.58
2023-04-30T07:26:05.291Z,35.24
2023-04-30T07:27:05.314Z,35.20
2023-04-30T07:28:05.330Z,36.25
2023-04-30T07:29:05.274Z,33.52
2023-04-30T07:30:05.280Z,37.27
2023-04-30T07:31:05.356Z,32.74
2023-04-30T07:32:05.298Z,31.52
2023-04-30T07:33:05.365Z,30.62
2023-04-30T07:34:05.341Z,33.10
2023-04-30T07:35:05.384Z,28.31
2023-04-30T07:36:05.351Z,24.98
2023-04-30T07:37:05.354Z,25.32
2023-04-30T07:38:05.351Z,25.49
2023-04-30T07:39:05.385Z,29.54
2023-04-30T07:40:05.390Z,31.86
2023-04-30T07:41:05.398Z,32.28
2023-04-30T07:42:05.428Z,33.38
2023-04-30T07:43:05.405Z,30.17
2023-04-30T07:44:05.469Z,27.99
2023-04-30T07:45:05.435Z,31.75
2023-04-30T07:46:05.451Z,31.80
2023-04-30T07:47:05.478Z,30.17
2023-04-30T07:48:05.500Z,27.14
2023-04-30T07:49:05.462Z,31.43
2023-04-30T07:50:05.490Z,27.29
2023-04-30T07:51:05.479Z,27.87
2023-04-30T07:52:05.486Z,26.60
2023-04-30T07:53:05.543Z,29.11
2023-04-30T07:54:05.511Z,29.99
2023-04-30T07:55:05.520Z,27.81
2023-04-30T07:56:05.517Z,28.35
2023-04-30T07:57:05.525Z,32.90
2023-04-30T07:58:05.566Z,34.91
2023-04-30T07:59:05.528Z,37.09
2023-04-30T08:00:05.553Z,29.53
2023-04-30T08:01:05.564Z,30.34
2023-04-30T08:02:05.612Z,26.59
2023-04-30T08:03:05.634Z,25.00
2023-04-30T08:04:05.721Z,32.02
2023-04-30T08:05:05.605Z,33.61
2023-04-30T08:06:05.620Z,33.96
2023-04-30T08:07:05.597Z,41.64
2023-04-30T08:08:05.608Z,40.08
2023-04-30T08:09:05.608Z,35.24
2023-04-30T08:10:05.657Z,37.12
2023-04-30T08:11:05.617Z,36.96
2023-04-30T08:12:05.630Z,37.09
2023-04-30T08:13:05.654Z,40.74
2023-04-30T08:14:05.635Z,40.94
2023-04-30T08:15:05.668Z,40.42
2023-04-30T08:16:05.668Z,39.83
2023-04-30T08:17:05.725Z,35.51
2023-04-30T08:18:05.823Z,36.43
2023-04-30T08:19:05.666Z,35.93
2023-04-30T08:20:05.662Z,39.24
2023-04-30T08:21:05.667Z,41.61
2023-04-30T08:22:05.675Z,43.61
2023-04-30T08:23:05.713Z,37.85
2023-04-30T08:24:05.777Z,41.29
2023-04-30T08:25:05.754Z,40.72
2023-04-30T08:26:05.740Z,44.10
2023-04-30T08:27:05.744Z,43.44
2023-04-30T08:28:05.747Z,29.63
2023-04-30T08:29:05.779Z,25.00
2023-04-30T08:30:05.816Z,29.05
2023-04-30T08:31:05.852Z,30.51
2023-04-30T08:32:06.034Z,31.63
2023-04-30T08:33:06.003Z,31.92
2023-04-30T08:34:06.060Z,33.78
2023-04-30T08:35:06.122Z,36.03
2023-04-30T08:36:06.088Z,34.18
2023-04-30T08:37:06.175Z,38.18
2023-04-30T08:38:06.212Z,41.76
2023-04-30T08:39:06.245Z,40.67
2023-04-30T08:40:06.315Z,40.07
2023-04-30T08:41:06.372Z,42.54
2023-04-30T08:42:06.415Z,44.78
2023-04-30T08:43:06.487Z,44.68
2023-04-30T08:44:08.421Z,51.79
2023-04-30T08:45:06.590Z,56.08
2023-04-30T08:46:06.673Z,56.75
2023-04-30T08:47:06.726Z,59.82
2023-04-30T08:48:06.799Z,63.31
2023-04-30T08:49:06.864Z,67.56
2023-04-30T08:50:06.866Z,71.94
2023-04-30T08:51:06.907Z,72.35
2023-04-30T08:52:06.950Z,77.43
2023-04-30T08:53:07.011Z,79.88
2023-04-30T08:54:07.063Z,81.22
2023-04-30T08:55:07.117Z,83.29
2023-04-30T08:56:07.148Z,89.31
2023-04-30T08:57:07.223Z,93.52
2023-04-30T08:58:07.683Z,108.25
2023-04-30T08:59:07.293Z,117.10
2023-04-30T09:00:07.364Z,114.33
2023-04-30T09:01:07.410Z,118.78
2023-04-30T09:02:07.537Z,119.35
2023-04-30T09:03:07.544Z,121.85
2023-04-30T09:04:07.652Z,125.49
2023-04-30T09:05:07.541Z,128.52
2023-04-30T09:06:07.620Z,130.50
2023-04-30T09:07:09.617Z,134.09
2023-04-30T09:08:07.681Z,137.26
2023-04-30T09:09:07.686Z,139.20
2023-04-30T09:10:07.718Z,142.11
2023-04-30T09:11:07.758Z,144.84
2023-04-30T09:12:07.772Z,145.98
2023-04-30T09:13:07.805Z,148.30
2023-04-30T09:14:07.840Z,151.30
2023-04-30T09:15:07.864Z,153.53
2023-04-30T09:16:07.950Z,155.92
2023-04-30T09:17:07.938Z,158.29
2023-04-30T09:18:08.066Z,161.06
2023-04-30T09:19:07.987Z,163.62
2023-04-30T09:20:08.009Z,166.14
2023-04-30T09:21:08.035Z,166.24
2023-04-30T09:22:07.993Z,166.90
2023-04-30T09:23:07.982Z,166.40
2023-04-30T09:24:07.990Z,167.34
2023-04-30T09:25:07.931Z,169.42
2023-04-30T09:26:07.894Z,172.92
2023-04-30T09:27:07.923Z,178.69
2023-04-30T09:28:07.886Z,180.68
2023-04-30T09:29:08.229Z,184.41
2023-04-30T09:30:07.833Z,184.54
2023-04-30T09:31:07.854Z,185.03
2023-04-30T09:32:07.818Z,186.21
2023-04-30T09:33:10.745Z,188.22
2023-04-30T09:34:07.812Z,184.71
2023-04-30T09:35:07.759Z,185.88
2023-04-30T09:36:07.732Z,188.20
2023-04-30T09:37:07.735Z,192.50
2023-04-30T09:38:07.725Z,196.11
2023-04-30T09:39:10.345Z,197.62
2023-04-30T09:40:07.736Z,197.80
2023-04-30T09:41:07.670Z,198.45
2023-04-30T09:42:07.651Z,199.86
2023-04-30T09:43:07.648Z,202.34
2023-04-30T09:44:07.618Z,205.49
2023-04-30T09:45:07.683Z,207.47
2023-04-30T09:46:07.591Z,207.66
2023-04-30T09:47:07.707Z,209.51
2023-04-30T09:48:16.544Z,210.66
2023-04-30T09:49:08.602Z,210.80
2023-04-30T09:50:07.636Z,211.09
2023-04-30T09:51:07.512Z,212.07
2023-04-30T09:52:07.519Z,214.06
2023-04-30T09:53:07.518Z,216.65
2023-04-30T09:54:07.486Z,218.38
2023-04-30T09:55:07.491Z,219.00
2023-04-30T09:56:07.456Z,219.45
2023-04-30T09:57:07.457Z,220.20
2023-04-30T09:58:07.480Z,221.27
2023-04-30T09:59:07.430Z,222.22
2023-04-30T10:00:07.426Z,223.34
2023-04-30T10:01:07.468Z,222.77
2023-04-30T10:02:07.398Z,224.95
2023-04-30T10:03:07.428Z,225.97
2023-04-30T10:04:07.381Z,226.31
2023-04-30T10:05:07.363Z,227.12
2023-04-30T10:06:07.454Z,226.89
2023-04-30T10:07:07.351Z,227.74
2023-04-30T10:08:07.304Z,228.65
2023-04-30T10:09:07.284Z,230.16
2023-04-30T10:10:07.272Z,230.06
2023-04-30T10:11:07.256Z,230.21
2023-04-30T10:12:07.211Z,230.81
2023-04-30T10:13:07.748Z,231.27
2023-04-30T10:14:07.179Z,230.96
2023-04-30T10:15:07.183Z,235.61
2023-04-30T10:16:07.197Z,236.56
2023-04-30T10:17:07.149Z,237.01
2023-04-30T10:18:07.239Z,236.67
2023-04-30T10:19:07.115Z,237.57
2023-04-30T10:20:07.085Z,238.15
2023-04-30T10:21:07.089Z,239.76
2023-04-30T10:22:07.052Z,238.30
2023-04-30T10:23:07.039Z,230.06
2023-04-30T10:24:06.988Z,223.29
2023-04-30T10:25:06.994Z,225.20
2023-04-30T10:26:06.970Z,219.64
2023-04-30T10:27:07.713Z,219.96
2023-04-30T10:28:07.213Z,218.13
2023-04-30T10:29:06.889Z,213.71
2023-04-30T10:30:06.898Z,216.10
2023-04-30T10:31:06.900Z,215.30
2023-04-30T10:32:06.941Z,215.57
2023-04-30T10:33:06.942Z,215.07
2023-04-30T10:34:06.936Z,216.52
2023-04-30T10:35:06.971Z,216.95
2023-04-30T10:36:06.944Z,218.23
2023-04-30T10:37:06.945Z,219.03
2023-04-30T10:38:06.975Z,210.31
2023-04-30T10:39:06.978Z,211.19
2023-04-30T10:40:06.983Z,213.60
2023-04-30T10:41:07.071Z,215.69
2023-04-30T10:42:07.014Z,214.11
2023-04-30T10:43:07.020Z,214.75
2023-04-30T10:44:07.052Z,214.32
2023-04-30T10:45:07.057Z,210.01
2023-04-30T10:46:07.086Z,210.73
2023-04-30T10:47:07.107Z,212.69
2023-04-30T10:48:07.360Z,211.57
2023-04-30T10:49:07.101Z,208.60
2023-04-30T10:50:07.136Z,208.73
2023-04-30T10:51:07.139Z,209.60
2023-04-30T10:52:07.172Z,209.50
2023-04-30T10:53:07.180Z,207.56
2023-04-30T10:54:07.210Z,209.33
2023-04-30T10:55:07.272Z,209.20
2023-04-30T10:56:07.254Z,206.71
2023-04-30T10:57:07.249Z,209.59
2023-04-30T10:58:07.276Z,205.92
2023-04-30T10:59:07.287Z,206.67
2023-04-30T11:00:07.289Z,209.58
2023-04-30T11:01:07.331Z,207.60
2023-04-30T11:02:07.324Z,205.89
2023-04-30T11:03:07.465Z,206.16
2023-04-30T11:04:07.366Z,207.71
2023-04-30T11:05:07.522Z,205.70
2023-04-30T11:06:07.436Z,207.17
2023-04-30T11:07:07.409Z,206.56
2023-04-30T11:08:07.433Z,204.93
2023-04-30T11:09:07.490Z,204.06
2023-04-30T11:10:07.468Z,206.71
2023-04-30T11:11:07.472Z,206.27
2023-04-30T11:12:07.510Z,203.97
2023-04-30T11:13:07.528Z,208.04
2023-04-30T11:14:07.523Z,212.11
2023-04-30T11:15:07.551Z,213.53
2023-04-30T11:16:07.566Z,211.00
2023-04-30T11:17:07.589Z,207.82
2023-04-30T11:18:07.738Z,203.55
2023-04-30T11:19:08.580Z,202.83
2023-04-30T11:20:07.657Z,204.24
2023-04-30T11:21:07.665Z,196.83
2023-04-30T11:22:07.706Z,196.94
2023-04-30T11:23:07.713Z,194.00
2023-04-30T11:24:07.746Z,189.03
2023-04-30T11:25:07.739Z,193.63
2023-04-30T11:26:07.775Z,198.50
2023-04-30T11:27:07.813Z,200.38
2023-04-30T11:28:07.784Z,199.04
2023-04-30T11:29:07.829Z,200.92
2023-04-30T11:30:07.782Z,202.15
2023-04-30T11:31:07.930Z,202.52
2023-04-30T11:32:07.810Z,201.60
2023-04-30T11:33:07.858Z,199.95
2023-04-30T11:34:07.902Z,203.11
2023-04-30T11:35:07.927Z,204.58
2023-04-30T11:36:07.930Z,203.82
2023-04-30T11:37:07.900Z,203.05
2023-04-30T11:38:08.009Z,204.16
2023-04-30T11:39:08.061Z,202.55
2023-04-30T11:40:07.948Z,201.61
2023-04-30T11:41:07.966Z,202.58
2023-04-30T11:42:07.971Z,199.75
2023-04-30T11:43:08.009Z,199.82
2023-04-30T11:44:07.936Z,200.12
2023-04-30T11:45:07.939Z,202.68
2023-04-30T11:46:07.963Z,206.81
2023-04-30T11:47:08.112Z,210.60
2023-04-30T11:48:07.929Z,206.88
2023-04-30T11:49:07.941Z,206.93
2023-04-30T11:50:07.873Z,202.82
2023-04-30T11:51:07.852Z,199.75
2023-04-30T11:52:07.858Z,192.63
2023-04-30T11:53:07.856Z,193.89
2023-04-30T11:54:07.808Z,192.45
2023-04-30T11:55:07.773Z,194.17
2023-04-30T11:56:07.776Z,187.93
2023-04-30T11:57:07.762Z,185.20
2023-04-30T11:58:07.749Z,191.85
2023-04-30T11:59:07.723Z,194.92
2023-04-30T12:00:07.702Z,196.81
2023-04-30T12:01:07.814Z,193.99
2023-04-30T12:02:07.756Z,195.70
2023-04-30T12:03:07.783Z,192.09
2023-04-30T12:04:07.738Z,195.93
2023-04-30T12:05:07.637Z,194.69
2023-04-30T12:06:07.689Z,197.42
2023-04-30T12:07:07.578Z,197.71
2023-04-30T12:08:07.581Z,197.72
2023-04-30T12:09:07.540Z,192.65
2023-04-30T12:10:07.545Z,194.97
2023-04-30T12:11:07.481Z,197.85
2023-04-30T12:12:07.475Z,195.72
2023-04-30T12:13:07.462Z,195.24
2023-04-30T12:14:07.535Z,193.57
2023-04-30T12:15:07.410Z,192.29
2023-04-30T12:16:07.425Z,191.49
2023-04-30T12:17:07.366Z,194.42
2023-04-30T12:18:07.386Z,202.31
2023-04-30T12:19:07.359Z,204.52
2023-04-30T12:20:07.290Z,205.74
2023-04-30T12:21:07.296Z,206.51
2023-04-30T12:22:07.243Z,208.94
2023-04-30T12:23:07.264Z,206.55
2023-04-30T12:24:07.236Z,206.61
2023-04-30T12:25:07.210Z,207.46
2023-04-30T12:26:07.221Z,212.46
2023-04-30T12:27:07.233Z,211.91
2023-04-30T12:28:07.265Z,214.97
2023-04-30T12:29:07.257Z,213.11
2023-04-30T12:30:07.251Z,212.39
2023-04-30T12:31:07.252Z,215.18
2023-04-30T12:32:07.286Z,216.14
2023-04-30T12:33:07.288Z,217.98
2023-04-30T12:34:07.255Z,220.71
2023-04-30T12:35:07.262Z,220.77